Time;durP1;ratioP1;P1;durP2;ratioP2;P2;SDS_P1;SDS_P2;PMS_P1;PMS_P2;Temp;Humidity;BMP_temperature;BMP_pressure;BME280_temperature;BME280_humidity;BME280_pressure;Samples;Min_cycle;Max_cycle;Signal;HPM_P1;HPM_P2
2023/09/22 00:01:04;;;;;;;4.12;1.60;;;;;;;23.97;50.01;98787.81;4458363;32;33938;-74
2023/09/22 00:03:32;;;;;;;5.00;2.05;;;;;;;24.01;49.91;98778.09;4448834;32;34587;-74
2023/09/22 00:06:02;;;;;;;4.80;2.53;;;;;;;23.94;50.24;98772.72;4450897;32;33758;-76
2023/09/22 00:08:32;;;;;;;12.70;2.80;;;;;;;23.97;50.25;98770.59;4454526;32;33829;-75
2023/09/22 00:11:00;;;;;;;10.77;2.65;;;;;;;23.96;50.32;98777.12;4445991;32;34163;-77
2023/09/22 00:13:27;;;;;;;4.07;2.50;;;;;;;23.87;50.68;98780.13;4449456;32;33936;-76
2023/09/22 00:15:55;;;;;;;4.62;1.85;;;;;;;23.85;50.72;98779.53;4450258;32;33431;-77
2023/09/22 00:18:23;;;;;;;3.17;1.70;;;;;;;23.87;50.72;98782.88;4446451;32;34994;-76
2023/09/22 00:20:50;;;;;;;7.15;2.60;;;;;;;23.83;50.92;98781.66;4449535;32;33881;-76
2023/09/22 00:23:18;;;;;;;3.67;2.08;;;;;;;23.77;51.30;98787.19;4449701;32;33341;-76
2023/09/22 00:25:45;;;;;;;3.50;2.05;;;;;;;23.76;51.38;98785.50;4447207;32;34484;-74
2023/09/22 00:28:13;;;;;;;11.90;2.47;;;;;;;23.75;51.48;98779.19;4447374;32;33769;-73
2023/09/22 00:30:42;;;;;;;4.40;2.10;;;;;;;23.70;51.72;98776.31;4447485;32;34162;-73
2023/09/22 00:33:10;;;;;;;8.43;2.47;;;;;;;23.68;51.88;98772.91;4434870;32;33425;-73
2023/09/22 00:35:38;;;;;;;3.20;2.05;;;;;;;23.66;52.12;98777.78;4447505;32;33980;-73
2023/09/22 00:38:07;;;;;;;4.97;2.37;;;;;;;23.65;52.20;98774.19;4455171;32;34088;-74
2023/09/22 00:40:34;;;;;;;5.78;2.45;;;;;;;23.52;52.82;98770.75;4452012;32;34912;-74
2023/09/22 00:43:10;;;;;;;7.60;2.40;;;;;;;23.47;53.05;98764.06;4449170;32;33344;-73
2023/09/22 00:45:42;;;;;;;2.92;1.87;;;;;;;23.44;53.19;98764.50;4440934;32;35362;-73
2023/09/22 00:48:22;;;;;;;3.58;1.92;;;;;;;23.47;53.17;98764.06;4468148;32;32698;-73
2023/09/22 00:50:51;;;;;;;5.90;2.53;;;;;;;23.45;53.31;98770.78;4450082;32;33872;-74
2023/09/22 00:53:18;;;;;;;10.75;2.75;;;;;;;23.40;53.50;98770.62;4449885;32;33339;-73
2023/09/22 00:55:48;;;;;;;5.25;2.12;;;;;;;23.34;53.74;98772.34;4444376;32;33356;-73
2023/09/22 00:58:16;;;;;;;5.85;1.87;;;;;;;23.40;53.60;98770.62;4453156;32;33965;-73
2023/09/22 01:00:49;;;;;;;5.80;1.77;;;;;;;23.34;53.74;98777.81;4452904;32;33938;-73
2023/09/22 01:03:18;;;;;;;7.03;1.85;;;;;;;23.33;53.64;98773.41;4450832;32;34558;-74
2023/09/22 01:05:46;;;;;;;19.08;2.35;;;;;;;23.38;53.53;98779.03;4441454;32;33475;-74
2023/09/22 01:08:14;;;;;;;5.82;2.17;;;;;;;23.36;53.50;98777.59;4452136;32;36099;-73
2023/09/22 01:10:43;;;;;;;5.32;1.92;;;;;;;23.33;53.54;98780.75;4450685;32;35548;-73
2023/09/22 01:13:10;;;;;;;6.20;2.85;;;;;;;23.34;53.56;98785.16;4449825;32;33536;-73
2023/09/22 01:15:45;;;;;;;8.60;3.08;;;;;;;23.29;53.66;98774.06;4452571;32;34367;-73
2023/09/22 01:18:13;;;;;;;3.33;1.85;;;;;;;23.21;53.72;98778.75;4455838;32;33844;-74
2023/09/22 01:20:44;;;;;;;8.52;3.00;;;;;;;23.13;53.52;98776.25;4463046;32;35000;-74
2023/09/22 01:23:13;;;;;;;5.72;2.28;;;;;;;23.05;53.76;98775.66;4446205;32;34548;-74
2023/09/22 01:25:42;;;;;;;4.93;2.62;;;;;;;22.95;54.22;98778.88;4455963;32;33817;-73
2023/09/22 01:28:11;;;;;;;4.60;2.25;;;;;;;22.88;54.49;98775.31;4448735;32;34653;-74
2023/09/22 01:30:39;;;;;;;6.97;2.35;;;;;;;22.79;54.93;98772.00;4447346;32;33942;-74
2023/09/22 01:33:08;;;;;;;6.57;2.75;;;;;;;22.50;55.92;98763.34;4448261;32;33430;-74
2023/09/22 01:35:37;;;;;;;16.90;2.33;;;;;;;22.43;56.25;98769.84;4459303;32;33736;-75
2023/09/22 01:38:13;;;;;;;6.90;3.10;;;;;;;22.27;56.96;98766.53;4456466;32;32998;-75
2023/09/22 01:40:41;;;;;;;10.15;2.55;;;;;;;22.28;57.26;98768.22;4459034;32;33705;-74
2023/09/22 01:43:10;;;;;;;6.10;2.80;;;;;;;22.16;57.64;98769.94;4448760;32;33849;-75
2023/09/22 01:45:38;;;;;;;12.45;2.37;;;;;;;22.22;57.63;98768.25;4445130;32;33593;-74
2023/09/22 01:48:08;;;;;;;6.15;2.42;;;;;;;22.16;57.93;98778.09;4437735;32;35013;-74
2023/09/22 01:50:40;;;;;;;7.07;2.08;;;;;;;22.17;57.95;98777.03;4444831;32;33001;-74
2023/09/22 01:53:09;;;;;;;6.10;2.40;;;;;;;22.20;57.86;98775.78;4454105;32;34426;-75
2023/09/22 01:55:37;;;;;;;4.43;2.30;;;;;;;22.24;57.71;98783.31;4458518;32;33608;-74
2023/09/22 01:58:07;;;;;;;6.25;2.03;;;;;;;22.23;57.81;98783.53;4452424;32;33987;-74
2023/09/22 02:00:35;;;;;;;7.07;2.22;;;;;;;22.29;57.60;98777.22;4449551;32;35051;-75
2023/09/22 02:03:04;;;;;;;3.75;2.20;;;;;;;22.21;57.75;98781.00;4437077;32;33301;-75
2023/09/22 02:05:32;;;;;;;4.75;2.22;;;;;;;22.17;57.83;98774.31;4458605;32;34727;-75
2023/09/22 02:08:00;;;;;;;7.95;3.50;;;;;;;22.27;57.55;98774.69;4458404;32;33888;-75
2023/09/22 02:10:27;;;;;;;3.75;2.05;;;;;;;22.22;57.76;98769.06;4450641;32;34185;-74
2023/09/22 02:12:55;;;;;;;4.72;1.77;;;;;;;22.21;57.80;98775.56;4446420;32;34348;-74
2023/09/22 02:15:23;;;;;;;5.62;2.30;;;;;;;22.23;57.71;98776.19;4451689;32;33352;-75
2023/09/22 02:17:50;;;;;;;6.57;2.35;;;;;;;22.31;57.51;98781.44;4451782;32;33670;-75
2023/09/22 02:20:22;;;;;;;9.45;2.83;;;;;;;22.35;57.33;98784.56;4450777;32;33911;-75
2023/09/22 02:22:52;;;;;;;5.75;2.25;;;;;;;22.35;57.24;98775.56;4449361;32;33224;-73
2023/09/22 02:25:22;;;;;;;7.12;2.62;;;;;;;22.32;57.37;98780.38;4432043;32;34684;-72
2023/09/22 02:27:53;;;;;;;6.78;2.37;;;;;;;22.40;57.00;98765.66;4433258;32;34820;-73
2023/09/22 02:30:22;;;;;;;7.80;2.95;;;;;;;22.39;57.09;98763.16;4432390;32;33924;-73
2023/09/22 02:32:54;;;;;;;11.35;2.17;;;;;;;22.44;56.93;98766.91;4432020;32;34565;-73
2023/09/22 02:35:22;;;;;;;4.82;2.78;;;;;;;22.44;56.78;98764.19;4433800;32;32652;-73
2023/09/22 02:37:50;;;;;;;4.37;2.53;;;;;;;22.43;56.74;98758.94;4434444;32;33820;-73
2023/09/22 02:40:18;;;;;;;5.78;2.03;;;;;;;22.39;56.82;98757.69;4434152;32;33898;-73
2023/09/22 02:42:46;;;;;;;8.20;1.98;;;;;;;22.37;56.90;98757.06;4433504;32;34069;-72
2023/09/22 02:45:15;;;;;;;4.35;2.33;;;;;;;22.28;57.07;98746.41;4434642;32;32384;-75
2023/09/22 02:47:42;;;;;;;8.05;3.20;;;;;;;22.19;57.35;98755.88;4433016;32;33937;-69
2023/09/22 02:50:15;;;;;;;5.10;2.00;;;;;;;22.22;57.33;98751.91;4434107;32;34023;-69
2023/09/22 02:52:42;;;;;;;11.27;3.78;;;;;;;22.10;57.67;98755.22;4433563;32;33334;-70
2023/09/22 02:55:11;;;;;;;4.07;1.92;;;;;;;22.04;57.95;98749.78;4419880;32;33873;-70
2023/09/22 02:57:42;;;;;;;5.47;3.08;;;;;;;22.06;57.87;98747.69;4442564;32;33857;-70
2023/09/22 03:00:20;;;;;;;3.30;1.75;;;;;;;22.06;57.84;98755.88;4451385;32;33464;-70
2023/09/22 03:02:49;;;;;;;5.43;2.85;;;;;;;21.99;58.23;98755.03;4447983;32;33332;-69
2023/09/22 03:05:18;;;;;;;6.30;2.25;;;;;;;21.98;58.33;98751.47;4453241;32;33629;-70
2023/09/22 03:07:49;;;;;;;5.90;2.85;;;;;;;22.03;58.25;98751.69;4453665;32;33563;-71
2023/09/22 03:10:18;;;;;;;5.32;2.90;;;;;;;22.05;58.15;98754.19;4453850;32;35250;-70
2023/09/22 03:12:51;;;;;;;4.10;2.33;;;;;;;22.01;58.23;98756.50;4452820;32;34602;-71
2023/09/22 03:15:20;;;;;;;9.32;2.87;;;;;;;22.11;57.96;98745.16;4453263;32;33274;-71
2023/09/22 03:17:48;;;;;;;12.82;2.67;;;;;;;22.10;57.91;98747.06;4452972;32;34970;-71
2023/09/22 03:20:17;;;;;;;4.20;1.70;;;;;;;22.03;58.11;98745.41;4456064;32;33940;-71
2023/09/22 03:22:45;;;;;;;9.38;3.45;;;;;;;22.12;57.91;98737.81;4456789;32;33219;-71
2023/09/22 03:25:14;;;;;;;4.78;2.42;;;;;;;22.11;57.88;98742.44;4453059;32;33747;-71
2023/09/22 03:27:42;;;;;;;5.60;2.72;;;;;;;22.11;57.98;98745.16;4451426;32;34947;-71
2023/09/22 03:30:11;;;;;;;7.53;2.22;;;;;;;22.10;58.02;98741.59;4452100;32;34084;-71
2023/09/22 03:32:39;;;;;;;5.12;2.67;;;;;;;21.83;58.89;98740.00;4453439;32;33681;-71
2023/09/22 03:35:08;;;;;;;11.98;2.78;;;;;;;21.84;58.93;98738.94;4453185;32;33681;-71
2023/09/22 03:37:37;;;;;;;4.90;1.98;;;;;;;21.87;58.87;98750.25;4451957;32;35095;-71
2023/09/22 03:40:14;;;;;;;5.40;2.45;;;;;;;21.85;58.99;98751.50;4445833;32;34084;-71
2023/09/22 03:42:44;;;;;;;6.87;2.55;;;;;;;21.80;59.35;98746.69;4451264;32;33089;-71
2023/09/22 03:45:13;;;;;;;8.23;3.45;;;;;;;21.72;59.82;98746.06;4448121;32;33784;-71
2023/09/22 03:47:41;;;;;;;13.95;2.72;;;;;;;21.79;59.56;98744.16;4442117;32;32942;-71
2023/09/22 03:50:10;;;;;;;6.95;2.83;;;;;;;21.90;59.34;98743.53;4438994;32;33790;-71
2023/09/22 03:52:40;;;;;;;5.75;2.90;;;;;;;21.70;60.02;98742.72;4453111;32;34138;-70
2023/09/22 03:55:09;;;;;;;5.80;3.22;;;;;;;21.77;59.91;98736.22;4452397;32;33871;-71
2023/09/22 03:57:38;;;;;;;3.45;2.12;;;;;;;21.69;60.35;98732.88;4452999;32;32600;-71
2023/09/22 04:00:15;;;;;;;4.35;2.25;;;;;;;21.59;60.84;98739.56;4455298;32;34246;-71
2023/09/22 04:02:45;;;;;;;8.25;3.17;;;;;;;21.68;60.60;98734.75;4450012;32;33565;-71
2023/09/22 04:05:12;;;;;;;6.00;2.90;;;;;;;21.79;60.10;98742.28;4450778;32;34631;-70
2023/09/22 04:07:40;;;;;;;8.05;2.42;;;;;;;21.69;60.62;98732.88;4454207;32;33760;-71
2023/09/22 04:10:10;;;;;;;9.55;3.17;;;;;;;21.74;60.53;98735.81;4448628;32;34193;-70
2023/09/22 04:12:37;;;;;;;6.30;2.95;;;;;;;21.62;61.00;98741.03;4452580;32;33111;-71
2023/09/22 04:15:06;;;;;;;10.25;3.53;;;;;;;21.53;61.19;98748.56;4452347;32;33545;-72
2023/09/22 04:17:34;;;;;;;6.30;3.08;;;;;;;21.66;60.94;98745.00;4453160;32;33741;-72
2023/09/22 04:20:07;;;;;;;5.85;3.37;;;;;;;21.69;60.87;98746.50;4454158;32;33874;-72
2023/09/22 04:22:35;;;;;;;5.20;2.47;;;;;;;21.69;60.82;98752.78;4451555;32;34072;-71
2023/09/22 04:25:18;;;;;;;10.40;3.47;;;;;;;21.69;60.82;98755.50;4452480;32;34983;-71
2023/09/22 04:27:53;;;;;;;6.28;3.15;;;;;;;21.75;60.66;98745.66;4447089;32;33855;-72
2023/09/22 04:30:21;;;;;;;9.25;3.55;;;;;;;21.73;60.84;98748.56;4450901;32;33741;-72
2023/09/22 04:32:51;;;;;;;10.15;3.15;;;;;;;21.64;61.28;98752.56;4453015;32;34091;-71
2023/09/22 04:35:20;;;;;;;10.05;4.43;;;;;;;21.77;60.86;98751.72;4453365;32;33811;-70
2023/09/22 04:37:49;;;;;;;5.95;2.40;;;;;;;21.45;61.90;98751.53;4450315;32;32522;-71
2023/09/22 04:40:29;;;;;;;6.85;3.47;;;;;;;21.80;60.84;98757.59;4452627;32;35124;-71
2023/09/22 04:42:57;;;;;;;9.65;3.28;;;;;;;21.80;60.73;98752.16;4451216;32;33608;-71
2023/09/22 04:45:25;;;;;;;7.72;3.72;;;;;;;21.54;61.46;98765.75;4451984;32;33602;-71
2023/09/22 04:47:52;;;;;;;7.05;3.60;;;;;;;21.62;61.42;98771.84;4447602;32;33815;-70
2023/09/22 04:50:21;;;;;;;8.95;3.95;;;;;;;21.53;61.80;98769.53;4451507;32;35106;-70
2023/09/22 04:52:49;;;;;;;7.25;3.55;;;;;;;21.69;61.23;98774.56;4452491;32;34324;-71
2023/09/22 04:55:19;;;;;;;5.12;2.78;;;;;;;21.78;61.01;98767.00;4452429;32;33910;-71
2023/09/22 04:57:48;;;;;;;5.18;2.92;;;;;;;21.76;61.08;98780.00;4451366;32;33878;-71
2023/09/22 05:00:16;;;;;;;6.47;3.30;;;;;;;21.81;61.03;98772.03;4451180;32;35495;-72
2023/09/22 05:02:44;;;;;;;6.20;3.33;;;;;;;21.83;60.97;98770.78;4450444;32;33624;-71
2023/09/22 05:05:12;;;;;;;12.37;3.58;;;;;;;21.83;60.96;98768.06;4451297;32;33817;-72
2023/09/22 05:07:39;;;;;;;11.85;4.62;;;;;;;21.80;61.02;98775.81;4452119;32;33833;-71
2023/09/22 05:10:07;;;;;;;6.37;3.12;;;;;;;21.79;61.13;98774.97;4452132;32;35098;-74
2023/09/22 05:12:35;;;;;;;14.00;4.43;;;;;;;21.70;61.43;98784.41;4452944;32;34175;-77
2023/09/22 05:15:04;;;;;;;11.45;4.35;;;;;;;21.67;61.57;98783.97;4451242;32;33934;-70
2023/09/22 05:17:34;;;;;;;7.75;3.97;;;;;;;21.74;61.47;98796.56;4448995;32;34511;-70
2023/09/22 05:20:12;;;;;;;9.25;5.00;;;;;;;21.88;61.11;98789.22;4452473;32;35187;-70
2023/09/22 05:22:40;;;;;;;8.75;3.60;;;;;;;21.88;61.30;98789.22;4451491;32;33386;-70
2023/09/22 05:25:10;;;;;;;9.95;3.92;;;;;;;21.91;61.31;98787.97;4451279;32;33598;-71
2023/09/22 05:27:39;;;;;;;9.98;4.80;;;;;;;21.92;61.34;98776.00;4449858;32;34112;-71
2023/09/22 05:30:08;;;;;;;11.48;4.45;;;;;;;21.98;61.33;98786.88;4441693;32;33985;-71
2023/09/22 05:32:36;;;;;;;9.80;3.55;;;;;;;22.06;61.03;98777.69;4451066;32;33425;-71
2023/09/22 05:35:04;;;;;;;13.75;5.12;;;;;;;21.91;61.59;98779.78;4445756;32;33101;-70
2023/09/22 05:37:32;;;;;;;8.40;3.97;;;;;;;21.95;61.61;98773.69;4450997;32;35470;-70
2023/09/22 05:40:00;;;;;;;8.35;4.45;;;;;;;21.81;62.48;98778.31;4448140;32;33774;-70
2023/09/22 05:42:28;;;;;;;16.90;3.20;;;;;;;21.96;62.30;98774.53;4448706;32;33548;-70
2023/09/22 05:44:56;;;;;;;8.15;4.30;;;;;;;21.74;62.95;98768.50;4451531;32;32557;-71
2023/09/22 05:47:23;;;;;;;6.15;4.00;;;;;;;21.75;63.33;98778.31;4451079;32;33660;-70
2023/09/22 05:49:51;;;;;;;15.40;4.78;;;;;;;21.78;63.35;98776.03;4452941;32;34913;-71
2023/09/22 05:52:20;;;;;;;8.90;4.18;;;;;;;21.98;63.04;98773.28;4450678;32;33360;-71
2023/09/22 05:54:48;;;;;;;9.23;4.55;;;;;;;22.07;62.78;98776.63;4451164;32;33818;-71
2023/09/22 05:57:16;;;;;;;8.93;4.70;;;;;;;22.22;62.11;98771.81;4452302;32;33803;-71
2023/09/22 05:59:44;;;;;;;9.57;4.50;;;;;;;21.74;63.83;98784.84;4447785;32;34012;-70
2023/09/22 06:02:11;;;;;;;9.98;5.10;;;;;;;22.01;63.04;98783.75;4445242;32;36559;-70
2023/09/22 06:04:39;;;;;;;9.88;3.45;;;;;;;22.08;62.89;98789.19;4435983;32;33668;-70
2023/09/22 06:07:12;;;;;;;13.27;3.45;;;;;;;22.17;62.85;98787.09;4437238;32;34234;-71
2023/09/22 06:09:40;;;;;;;5.78;3.22;;;;;;;22.50;62.01;98792.47;4437296;32;34041;-70
2023/09/22 06:12:08;;;;;;;9.30;3.78;;;;;;;22.20;62.33;98781.22;4424665;32;34365;-71
2023/09/22 06:14:35;;;;;;;12.23;5.57;;;;;;;22.49;61.90;98786.19;4442710;32;33462;-71
2023/09/22 06:17:04;;;;;;;9.27;5.18;;;;;;;22.59;61.76;98793.06;4441407;32;34946;-71
2023/09/22 06:19:31;;;;;;;14.40;3.83;;;;;;;22.89;61.24;98801.53;4426691;32;35474;-70
2023/09/22 06:21:59;;;;;;;8.02;4.25;;;;;;;22.97;60.88;98795.88;4438615;32;33437;-70
2023/09/22 06:24:27;;;;;;;7.12;3.90;;;;;;;23.71;58.65;98799.81;4447885;32;34751;-70
2023/09/22 06:26:56;;;;;;;15.07;3.58;;;;;;;24.59;55.50;98790.56;4450203;32;34985;-71
2023/09/22 06:29:23;;;;;;;10.88;3.70;;;;;;;26.11;51.27;98784.78;4415888;32;34713;-71
2023/09/22 06:31:51;;;;;;;10.07;3.12;;;;;;;25.63;51.35;98791.25;4405596;32;34442;-70
2023/09/22 06:34:21;;;;;;;15.23;3.78;;;;;;;25.23;52.36;98794.63;4404466;32;33603;-70
2023/09/22 06:36:49;;;;;;;5.32;3.35;;;;;;;25.01;53.46;98793.44;4409486;32;35267;-70
2023/09/22 06:39:16;;;;;;;9.32;4.30;;;;;;;24.68;54.09;98805.59;4405381;32;33884;-71
2023/09/22 06:41:44;;;;;;;8.18;3.90;;;;;;;24.20;55.53;98806.31;4405797;32;34225;-70
2023/09/22 06:44:12;;;;;;;8.25;4.60;;;;;;;24.25;55.20;98813.84;4413720;32;34541;-71
2023/09/22 06:46:40;;;;;;;10.43;4.47;;;;;;;24.20;55.11;98814.50;4408749;32;35026;-71
2023/09/22 06:49:08;;;;;;;13.23;4.62;;;;;;;23.93;56.28;98822.13;4408373;32;34794;-71
2023/09/22 06:51:37;;;;;;;10.85;5.28;;;;;;;23.99;56.04;98815.78;4400795;32;31703;-70
2023/09/22 06:54:05;;;;;;;8.05;3.58;;;;;;;23.93;56.13;98811.22;4396049;32;33916;-71
2023/09/22 06:56:34;;;;;;;12.70;3.75;;;;;;;24.03;55.94;98808.78;4402895;32;33761;-70
2023/09/22 06:59:16;;;;;;;6.32;3.05;;;;;;;23.90;56.55;98812.47;4408104;32;33910;-71
2023/09/22 07:01:43;;;;;;;13.90;4.10;;;;;;;24.03;56.49;98819.72;4438987;32;33325;-71
2023/09/22 07:04:12;;;;;;;9.35;4.43;;;;;;;24.22;56.20;98817.03;4436659;32;33611;-71
2023/09/22 07:06:41;;;;;;;10.75;4.57;;;;;;;24.14;56.51;98826.34;4440877;32;33542;-70
2023/09/22 07:09:11;;;;;;;9.00;3.45;;;;;;;23.90;56.66;98830.78;4443754;32;34650;-71
2023/09/22 07:11:42;;;;;;;16.23;3.95;;;;;;;24.39;55.53;98823.56;4436200;32;33198;-70
2023/09/22 07:14:10;;;;;;;12.37;6.78;;;;;;;24.21;56.11;98829.88;4443961;32;35525;-70
2023/09/22 07:16:38;;;;;;;13.13;4.10;;;;;;;24.02;56.55;98830.91;4442218;32;32887;-71
2023/09/22 07:19:06;;;;;;;9.95;4.82;;;;;;;24.29;56.10;98831.47;4437399;32;33815;-70
2023/09/22 07:21:34;;;;;;;9.75;4.25;;;;;;;24.09;56.33;98827.03;4423515;32;33311;-71
2023/09/22 07:24:03;;;;;;;7.85;3.25;;;;;;;24.35;55.82;98820.47;4445277;32;33689;-72
2023/09/22 07:26:31;;;;;;;6.80;3.50;;;;;;;24.42;55.84;98822.31;4441052;32;34845;-71
2023/09/22 07:28:58;;;;;;;8.88;3.83;;;;;;;24.57;55.18;98818.16;4439634;32;34262;-70
2023/09/22 07:31:30;;;;;;;10.70;5.03;;;;;;;24.33;55.90;98828.06;4439153;32;34195;-71
2023/09/22 07:33:58;;;;;;;8.88;4.03;;;;;;;24.32;55.60;98823.66;4438269;32;34654;-70
2023/09/22 07:36:26;;;;;;;7.55;3.35;;;;;;;24.55;55.58;98836.69;4435534;32;34303;-70
2023/09/22 07:38:54;;;;;;;13.10;4.28;;;;;;;25.04;54.25;98836.72;4435223;32;35176;-71
2023/09/22 07:41:22;;;;;;;13.10;4.50;;;;;;;25.85;52.40;98829.09;4426266;32;33343;-70
2023/09/22 07:43:52;;;;;;;11.52;4.05;;;;;;;25.70;51.49;98838.56;4436259;32;34172;-71
2023/09/22 07:46:22;;;;;;;12.88;3.47;;;;;;;25.94;50.76;98844.13;4432409;32;33984;-70
2023/09/22 07:48:51;;;;;;;10.40;3.80;;;;;;;25.92;50.98;98854.50;4436588;32;33900;-70
2023/09/22 07:51:20;;;;;;;11.48;3.78;;;;;;;25.37;52.19;98857.41;4438989;32;33954;-70
2023/09/22 07:53:47;;;;;;;10.25;4.65;;;;;;;25.52;52.16;98855.06;4444253;32;34027;-71
2023/09/22 07:56:18;;;;;;;9.45;3.55;;;;;;;25.19;52.78;98856.38;4440938;32;33618;-70
2023/09/22 07:58:46;;;;;;;11.32;5.70;;;;;;;25.22;52.66;98852.34;4435266;32;33838;-72
2023/09/22 08:01:34;;;;;;;16.80;4.65;;;;;;;25.38;52.32;98842.66;4437428;32;34197;-70
2023/09/22 08:04:02;;;;;;;9.90;4.22;;;;;;;25.49;52.25;98853.66;4446122;32;33605;-70
2023/09/22 08:06:31;;;;;;;5.70;2.72;;;;;;;24.95;53.52;98849.94;4445579;32;33849;-70
2023/09/22 08:08:59;;;;;;;14.10;5.32;;;;;;;25.24;53.08;98848.31;4445449;32;33877;-70
2023/09/22 08:11:27;;;;;;;6.95;3.22;;;;;;;25.54;52.10;98844.72;4438244;32;33470;-70
2023/09/22 08:13:54;;;;;;;7.65;3.62;;;;;;;25.61;52.14;98853.66;4444477;32;34675;-70
2023/09/22 08:16:22;;;;;;;17.75;6.00;;;;;;;24.84;54.75;98851.50;4441106;32;34933;-71
2023/09/22 08:18:50;;;;;;;17.30;6.25;;;;;;;24.73;54.83;98857.75;4446880;32;34267;-70
2023/09/22 08:21:20;;;;;;;10.38;4.10;;;;;;;25.02;53.97;98858.06;4449617;32;34362;-70
2023/09/22 08:23:48;;;;;;;12.80;4.70;;;;;;;25.18;53.43;98853.88;4444668;32;33769;-70
2023/09/22 08:26:19;;;;;;;11.23;4.05;;;;;;;25.05;53.59;98854.84;4444539;32;35033;-70
2023/09/22 08:28:47;;;;;;;9.50;4.00;;;;;;;25.36;52.83;98853.84;4441680;32;33971;-70
2023/09/22 08:31:14;;;;;;;12.45;4.05;;;;;;;25.14;53.12;98850.78;4446194;32;34256;-70
2023/09/22 08:33:42;;;;;;;11.27;3.95;;;;;;;25.21;52.23;98854.25;4444893;32;34624;-70
2023/09/22 08:36:11;;;;;;;6.05;3.03;;;;;;;25.02;52.92;98858.06;4443783;32;35282;-68
2023/09/22 08:38:38;;;;;;;7.55;3.67;;;;;;;25.37;52.38;98861.00;4448011;32;33984;-69
2023/09/22 08:41:06;;;;;;;9.20;3.80;;;;;;;24.88;53.15;98857.37;4449171;32;33577;-69
2023/09/22 08:43:35;;;;;;;8.90;3.60;;;;;;;25.30;52.03;98852.88;4413673;32;32608;-70
2023/09/22 08:46:03;;;;;;;19.75;5.43;;;;;;;25.56;52.41;98861.78;4418229;32;33958;-70
2023/09/22 08:48:32;;;;;;;9.32;3.95;;;;;;;25.60;52.45;98849.28;4415529;32;33954;-69
2023/09/22 08:51:00;;;;;;;11.32;3.70;;;;;;;25.44;52.18;98858.16;4415409;32;34317;-70
2023/09/22 08:53:29;;;;;;;7.78;3.72;;;;;;;25.86;51.90;98855.44;4417495;32;33638;-69
2023/09/22 08:55:57;;;;;;;11.40;3.75;;;;;;;25.75;51.28;98855.16;4417888;32;33892;-70
2023/09/22 08:58:25;;;;;;;9.27;3.45;;;;;;;25.76;51.11;98859.56;4413124;32;34648;-69
2023/09/22 09:00:53;;;;;;;14.93;4.25;;;;;;;25.99;51.28;98857.97;4418681;32;33517;-70
2023/09/22 09:03:21;;;;;;;8.13;3.70;;;;;;;25.86;50.70;98853.53;4424829;32;34800;-70
2023/09/22 09:05:49;;;;;;;14.68;4.22;;;;;;;25.66;51.23;98850.25;4425164;32;33667;-70
2023/09/22 09:08:21;;;;;;;9.70;3.65;;;;;;;26.05;50.88;98845.22;4417774;32;33772;-70
2023/09/22 09:10:49;;;;;;;11.57;3.87;;;;;;;26.45;50.69;98848.94;4422176;32;33081;-70
2023/09/22 09:13:23;;;;;;;9.68;4.37;;;;;;;26.54;50.24;98841.19;4411862;32;33751;-68
2023/09/22 09:15:57;;;;;;;16.95;3.50;;;;;;;26.96;49.30;98830.00;4447494;32;34010;-70
2023/09/22 09:18:25;;;;;;;10.05;2.87;;;;;;;26.61;47.86;98843.78;4447861;32;34960;-69
2023/09/22 09:21:11;;;;;;;11.80;3.03;;;;;;;26.06;47.78;98844.13;4446660;32;33104;-71
2023/09/22 09:23:53;;;;;;;10.65;2.62;;;;;;;26.04;47.58;98836.16;4450271;32;33495;-73
2023/09/22 09:26:24;;;;;;;12.00;3.85;;;;;;;26.22;47.01;98821.50;4407770;32;33097;-72
2023/09/22 09:28:51;;;;;;;9.13;2.70;;;;;;;26.14;47.37;98824.59;4409659;32;34504;-72
2023/09/22 09:31:20;;;;;;;20.45;4.80;;;;;;;26.33;47.40;98819.84;4392939;32;34987;-71
2023/09/22 09:33:54;;;;;;;10.00;3.22;;;;;;;26.15;46.74;98832.56;4403199;32;34697;-72
2023/09/22 09:36:21;;;;;;;11.52;3.62;;;;;;;26.12;46.77;98824.81;4401888;32;34973;-71
2023/09/22 09:38:49;;;;;;;9.30;4.05;;;;;;;26.22;47.37;98819.56;4406026;32;34017;-73
2023/09/22 09:41:19;;;;;;;6.30;2.72;;;;;;;26.11;47.42;98822.34;4406646;32;33079;-72
2023/09/22 09:43:47;;;;;;;8.13;3.10;;;;;;;26.28;47.09;98815.06;4392587;32;33821;-72
2023/09/22 09:46:16;;;;;;;16.17;4.53;;;;;;;26.73;45.96;98811.69;4393300;32;32673;-73
2023/09/22 09:48:45;;;;;;;11.25;4.97;;;;;;;26.59;45.79;98813.88;4400767;32;34887;-71
2023/09/22 09:51:14;;;;;;;9.07;3.67;;;;;;;26.59;45.86;98811.13;4407948;32;33428;-71
2023/09/22 09:53:44;;;;;;;15.23;4.28;;;;;;;26.61;46.51;98803.50;4373312;32;34157;-72
2023/09/22 09:56:17;;;;;;;14.77;4.10;;;;;;;27.06;45.57;98802.75;4374227;32;34915;-71
2023/09/22 09:58:48;;;;;;;10.80;2.78;;;;;;;27.05;45.51;98803.00;4420370;32;33789;-71
2023/09/22 10:01:18;;;;;;;11.48;4.03;;;;;;;27.10;44.34;98794.88;4412903;32;33621;-70
2023/09/22 10:03:46;;;;;;;7.18;3.22;;;;;;;27.05;44.40;98795.59;4400552;32;35020;-71
2023/09/22 10:06:16;;;;;;;11.10;2.85;;;;;;;27.14;44.63;98796.06;4420706;32;33850;-73
2023/09/22 10:08:44;;;;;;;7.10;3.10;;;;;;;26.86;44.85;98788.63;4417776;32;33851;-70
2023/09/22 10:11:13;;;;;;;8.68;2.95;;;;;;;27.47;44.11;98786.22;4415665;32;33322;-71
2023/09/22 10:13:41;;;;;;;7.03;2.95;;;;;;;27.94;43.35;98781.28;4416756;32;33545;-68
2023/09/22 10:16:09;;;;;;;9.45;2.70;;;;;;;28.08;42.98;98793.59;4416861;32;34131;-70
2023/09/22 10:18:51;;;;;;;14.82;5.05;;;;;;;28.15;41.92;98784.31;4404943;32;34127;-70
2023/09/22 10:21:30;;;;;;;9.00;2.80;;;;;;;27.58;42.39;98779.84;4417639;32;33679;-70
2023/09/22 10:24:32;;;;;;;6.15;2.65;;;;;;;27.42;43.01;98776.00;4413851;32;34727;-70
2023/09/22 10:27:14;;;;;;;12.95;4.60;;;;;;;27.55;42.81;98783.91;4431806;32;34693;-69
2023/09/22 10:29:45;;;;;;;11.35;3.10;;;;;;;28.00;42.44;98779.44;4429493;32;32521;-70
2023/09/22 10:32:20;;;;;;;10.75;2.78;;;;;;;28.13;41.40;98781.84;4446335;32;34549;-70
2023/09/22 10:34:53;;;;;;;8.48;2.80;;;;;;;27.86;41.51;98774.28;4449314;32;34084;-69
2023/09/22 10:37:22;;;;;;;6.40;3.45;;;;;;;28.31;41.55;98770.56;4451675;32;34471;-71
2023/09/22 10:40:09;;;;;;;11.30;4.03;;;;;;;28.20;41.35;98773.41;4441219;32;33940;-72
2023/09/22 10:42:50;;;;;;;12.77;3.85;;;;;;;28.28;40.74;98771.06;4450917;32;33078;-71
2023/09/22 10:45:25;;;;;;;9.77;3.40;;;;;;;28.08;42.00;98766.09;4452034;32;33574;-72
2023/09/22 10:47:54;;;;;;;17.60;3.58;;;;;;;28.42;41.12;98759.72;4448517;32;34909;-72
2023/09/22 10:50:32;;;;;;;6.95;2.47;;;;;;;28.22;40.64;98766.56;4450269;32;34311;-71
2023/09/22 10:53:04;;;;;;;13.07;2.67;;;;;;;27.86;40.75;98759.69;4450367;32;33656;-74
2023/09/22 10:55:37;;;;;;;10.38;2.55;;;;;;;28.19;40.28;98758.84;4449949;32;33785;-73
2023/09/22 10:58:09;;;;;;;9.95;2.78;;;;;;;28.21;40.36;98761.31;4448331;32;33922;-72
2023/09/22 11:00:40;;;;;;;12.00;3.05;;;;;;;27.83;40.86;98762.94;4450275;32;34120;-73
2023/09/22 11:03:09;;;;;;;5.72;2.47;;;;;;;27.91;40.02;98762.53;4446222;32;32414;-72
2023/09/22 11:05:38;;;;;;;14.75;4.62;;;;;;;28.19;39.55;98760.75;4448677;32;34664;-72
2023/09/22 11:08:17;;;;;;;15.43;3.25;;;;;;;28.43;39.15;98753.94;4451208;32;33954;-72
2023/09/22 11:10:52;;;;;;;9.98;2.78;;;;;;;28.21;39.43;98747.56;4451482;32;34245;-71
2023/09/22 11:13:24;;;;;;;10.63;2.92;;;;;;;27.98;39.46;98763.19;4449454;32;32571;-71
2023/09/22 11:15:56;;;;;;;17.48;3.20;;;;;;;27.92;39.36;98764.19;4451478;32;33646;-71
2023/09/22 11:18:28;;;;;;;11.07;3.17;;;;;;;28.40;38.45;98754.47;4445718;32;34850;-72
2023/09/22 11:20:57;;;;;;;8.00;2.90;;;;;;;28.65;37.31;98753.13;4445393;32;33967;-72
2023/09/22 11:23:26;;;;;;;11.07;3.15;;;;;;;28.58;37.82;98753.31;4448619;32;34571;-71
2023/09/22 11:25:55;;;;;;;7.20;3.60;;;;;;;28.34;38.09;98753.50;4448745;32;33842;-70
2023/09/22 11:28:23;;;;;;;9.45;3.80;;;;;;;28.39;38.25;98754.69;4449805;32;34784;-71
2023/09/22 11:30:54;;;;;;;6.97;2.55;;;;;;;28.47;38.54;98748.75;4450483;32;33958;-71
2023/09/22 11:33:22;;;;;;;8.82;2.95;;;;;;;28.39;37.89;98741.75;4448507;32;33638;-68
2023/09/22 11:35:53;;;;;;;9.00;3.17;;;;;;;28.45;37.45;98746.28;4448341;32;35394;-68
2023/09/22 11:38:25;;;;;;;12.43;4.20;;;;;;;28.73;36.89;98745.25;4455440;32;34091;-69
2023/09/22 11:41:08;;;;;;;12.55;3.62;;;;;;;28.77;36.94;98737.31;4450422;32;34718;-69
2023/09/22 11:43:37;;;;;;;9.70;3.80;;;;;;;28.84;36.61;98745.38;4446239;32;34452;-69